sensor_id;sensor_type;location;lat;lon;timestamp;pressure;altitude;pressure_sealevel;temperature;humidity
6514;BME280;3290;47.716;9.070;2024-01-06T00:02:05;95751.47;;;7.90;100.00
6514;BME280;3290;47.716;9.070;2024-01-06T00:04:30;95745.69;;;7.99;100.00
6514;BME280;3290;47.716;9.070;2024-01-06T00:06:56;95749.75;;;7.84;100.00
6514;BME280;3290;47.716;9.070;2024-01-06T00:09:21;95753.72;;;7.86;100.00
6514;BME280;3290;47.716;9.070;2024-01-06T00:11:46;95754.06;;;7.90;100.00
6514;BME280;3290;47.716;9.070;2024-01-06T00:14:12;95755.78;;;7.84;100.00
6514;BME280;3290;47.716;9.070;2024-01-06T00:16:37;95756.22;;;7.93;100.00
6514;BME280;3290;47.716;9.070;2024-01-06T00:19:02;95751.69;;;7.88;100.00
6514;BME280;3290;47.716;9.070;2024-01-06T00:21:28;95754.06;;;7.67;100.00
6514;BME280;3290;47.716;9.070;2024-01-06T00:23:53;95753.72;;;7.63;100.00
6514;BME280;3290;47.716;9.070;2024-01-06T00:26:21;95757.78;;;7.71;100.00
6514;BME280;3290;47.716;9.070;2024-01-06T00:28:46;95759.25;;;7.78;100.00
6514;BME280;3290;47.716;9.070;2024-01-06T00:31:14;95761.66;;;7.68;100.00
6514;BME280;3290;47.716;9.070;2024-01-06T00:33:41;95756.78;;;7.72;100.00
6514;BME280;3290;47.716;9.070;2024-01-06T00:36:07;95758.59;;;7.83;100.00
6514;BME280;3290;47.716;9.070;2024-01-06T00:38:32;95761.66;;;7.68;100.00
6514;BME280;3290;47.716;9.070;2024-01-06T00:40:58;95760.75;;;7.74;100.00
6514;BME280;3290;47.716;9.070;2024-01-06T00:43:23;95762.91;;;7.89;100.00
6514;BME280;3290;47.716;9.070;2024-01-06T00:45:49;95766.22;;;7.84;100.00
6514;BME280;3290;47.716;9.070;2024-01-06T00:48:14;95768.59;;;7.86;100.00
6514;BME280;3290;47.716;9.070;2024-01-06T00:50:39;95768.69;;;7.79;100.00
6514;BME280;3290;47.716;9.070;2024-01-06T00:53:04;95772.09;;;7.91;100.00
6514;BME280;3290;47.716;9.070;2024-01-06T00:55:30;95775.16;;;7.88;100.00
6514;BME280;3290;47.716;9.070;2024-01-06T00:57:55;95779.81;;;7.86;100.00
6514;BME280;3290;47.716;9.070;2024-01-06T01:00:21;95777.19;;;7.86;100.00
6514;BME280;3290;47.716;9.070;2024-01-06T01:02:47;95782.06;;;7.94;100.00
6514;BME280;3290;47.716;9.070;2024-01-06T01:05:13;95776.63;;;7.84;100.00
6514;BME280;3290;47.716;9.070;2024-01-06T01:07:38;95786.00;;;7.62;100.00
6514;BME280;3290;47.716;9.070;2024-01-06T01:10:04;95786.41;;;8.00;100.00
6514;BME280;3290;47.716;9.070;2024-01-06T01:12:30;95789.97;;;7.76;100.00
6514;BME280;3290;47.716;9.070;2024-01-06T01:14:56;95798.16;;;7.80;100.00
6514;BME280;3290;47.716;9.070;2024-01-06T01:17:21;95796.94;;;7.94;100.00
6514;BME280;3290;47.716;9.070;2024-01-06T01:19:46;95801.00;;;8.01;100.00
6514;BME280;3290;47.716;9.070;2024-01-06T01:22:12;95802.50;;;7.97;100.00
6514;BME280;3290;47.716;9.070;2024-01-06T01:24:38;95807.78;;;7.91;100.00
6514;BME280;3290;47.716;9.070;2024-01-06T01:27:03;95811.63;;;7.77;100.00
6514;BME280;3290;47.716;9.070;2024-01-06T01:29:29;95812.66;;;7.87;100.00
6514;BME280;3290;47.716;9.070;2024-01-06T01:31:54;95823.00;;;7.94;100.00
6514;BME280;3290;47.716;9.070;2024-01-06T01:34:19;95828.22;;;7.82;100.00
6514;BME280;3290;47.716;9.070;2024-01-06T01:36:45;95833.03;;;7.67;100.00
6514;BME280;3290;47.716;9.070;2024-01-06T01:39:10;95828.84;;;7.66;100.00
6514;BME280;3290;47.716;9.070;2024-01-06T01:41:36;95827.19;;;7.54;100.00
6514;BME280;3290;47.716;9.070;2024-01-06T01:44:01;95843.72;;;7.77;100.00
6514;BME280;3290;47.716;9.070;2024-01-06T01:46:28;95846.31;;;7.37;100.00
6514;BME280;3290;47.716;9.070;2024-01-06T01:48:54;95844.31;;;7.50;100.00
6514;BME280;3290;47.716;9.070;2024-01-06T01:51:21;95857.56;;;7.49;100.00
6514;BME280;3290;47.716;9.070;2024-01-06T01:53:47;95854.06;;;7.55;100.00
6514;BME280;3290;47.716;9.070;2024-01-06T01:56:12;95847.91;;;7.78;100.00
6514;BME280;3290;47.716;9.070;2024-01-06T01:58:38;95861.63;;;7.74;100.00
6514;BME280;3290;47.716;9.070;2024-01-06T02:01:03;95857.31;;;7.79;100.00
6514;BME280;3290;47.716;9.070;2024-01-06T02:03:30;95859.50;;;7.53;100.00
6514;BME280;3290;47.716;9.070;2024-01-06T02:05:55;95854.78;;;7.61;100.00
6514;BME280;3290;47.716;9.070;2024-01-06T02:08:20;95843.69;;;7.66;100.00
6514;BME280;3290;47.716;9.070;2024-01-06T02:10:46;95851.59;;;7.59;100.00
6514;BME280;3290;47.716;9.070;2024-01-06T02:13:12;95842.56;;;7.73;100.00
6514;BME280;3290;47.716;9.070;2024-01-06T02:15:37;95842.06;;;7.54;100.00
6514;BME280;3290;47.716;9.070;2024-01-06T02:18:03;95843.66;;;7.55;100.00
6514;BME280;3290;47.716;9.070;2024-01-06T02:20:30;95842.47;;;7.80;100.00
6514;BME280;3290;47.716;9.070;2024-01-06T02:22:56;95838.69;;;7.64;100.00
6514;BME280;3290;47.716;9.070;2024-01-06T02:25:22;95839.59;;;7.58;100.00
6514;BME280;3290;47.716;9.070;2024-01-06T02:27:47;95846.63;;;7.69;100.00
6514;BME280;3290;47.716;9.070;2024-01-06T02:30:13;95848.06;;;7.54;100.00
6514;BME280;3290;47.716;9.070;2024-01-06T02:32:38;95848.38;;;7.46;100.00
6514;BME280;3290;47.716;9.070;2024-01-06T02:35:04;95847.97;;;7.60;100.00
6514;BME280;3290;47.716;9.070;2024-01-06T02:37:29;95860.06;;;7.55;100.00
6514;BME280;3290;47.716;9.070;2024-01-06T02:39:54;95858.44;;;7.43;100.00
6514;BME280;3290;47.716;9.070;2024-01-06T02:42:20;95860.91;;;7.38;100.00
6514;BME280;3290;47.716;9.070;2024-01-06T02:44:45;95866.03;;;7.44;100.00
6514;BME280;3290;47.716;9.070;2024-01-06T02:47:11;95861.22;;;7.30;100.00
6514;BME280;3290;47.716;9.070;2024-01-06T02:49:36;95864.28;;;7.56;100.00
6514;BME280;3290;47.716;9.070;2024-01-06T02:52:01;95862.88;;;7.42;100.00
6514;BME280;3290;47.716;9.070;2024-01-06T02:54:27;95853.09;;;7.38;100.00
6514;BME280;3290;47.716;9.070;2024-01-06T02:56:52;95861.88;;;7.25;100.00
6514;BME280;3290;47.716;9.070;2024-01-06T02:59:17;95870.47;;;7.44;100.00
6514;BME280;3290;47.716;9.070;2024-01-06T03:01:43;95873.16;;;7.37;100.00
6514;BME280;3290;47.716;9.070;2024-01-06T03:04:08;95870.94;;;7.23;100.00
6514;BME280;3290;47.716;9.070;2024-01-06T03:06:34;95875.97;;;7.36;100.00
6514;BME280;3290;47.716;9.070;2024-01-06T03:08:59;95870.13;;;7.22;100.00
6514;BME280;3290;47.716;9.070;2024-01-06T03:11:25;95870.28;;;7.10;100.00
6514;BME280;3290;47.716;9.070;2024-01-06T03:13:50;95874.25;;;7.12;100.00
6514;BME280;3290;47.716;9.070;2024-01-06T03:16:15;95881.44;;;6.99;100.00
6514;BME280;3290;47.716;9.070;2024-01-06T03:18:41;95869.28;;;6.93;100.00
6514;BME280;3290;47.716;9.070;2024-01-06T03:21:16;95869.78;;;7.01;100.00
6514;BME280;3290;47.716;9.070;2024-01-06T03:23:42;95876.66;;;6.96;100.00
6514;BME280;3290;47.716;9.070;2024-01-06T03:26:08;95879.25;;;6.96;100.00
6514;BME280;3290;47.716;9.070;2024-01-06T03:28:33;95886.91;;;6.91;100.00
6514;BME280;3290;47.716;9.070;2024-01-06T03:30:58;95875.56;;;7.03;100.00
6514;BME280;3290;47.716;9.070;2024-01-06T03:33:24;95884.69;;;6.94;100.00
6514;BME280;3290;47.716;9.070;2024-01-06T03:35:49;95879.94;;;6.91;100.00
6514;BME280;3290;47.716;9.070;2024-01-06T03:38:14;95886.19;;;6.84;100.00
6514;BME280;3290;47.716;9.070;2024-01-06T03:40:40;95880.78;;;7.03;100.00
6514;BME280;3290;47.716;9.070;2024-01-06T03:43:05;95882.78;;;7.01;100.00
6514;BME280;3290;47.716;9.070;2024-01-06T03:45:30;95882.78;;;7.01;100.00
6514;BME280;3290;47.716;9.070;2024-01-06T03:47:56;95883.47;;;6.97;100.00
6514;BME280;3290;47.716;9.070;2024-01-06T03:50:21;95884.97;;;7.04;100.00
6514;BME280;3290;47.716;9.070;2024-01-06T03:52:46;95876.28;;;7.10;100.00
6514;BME280;3290;47.716;9.070;2024-01-06T03:55:13;95874.72;;;7.09;100.00
6514;BME280;3290;47.716;9.070;2024-01-06T03:57:39;95878.78;;;7.05;100.00
6514;BME280;3290;47.716;9.070;2024-01-06T04:00:05;95887.00;;;7.02;100.00
6514;BME280;3290;47.716;9.070;2024-01-06T04:02:30;95885.69;;;7.11;100.00
6514;BME280;3290;47.716;9.070;2024-01-06T04:04:55;95879.91;;;7.09;100.00
6514;BME280;3290;47.716;9.070;2024-01-06T04:07:21;95896.75;;;7.24;100.00
6514;BME280;3290;47.716;9.070;2024-01-06T04:09:46;95894.53;;;7.28;100.00
6514;BME280;3290;47.716;9.070;2024-01-06T04:12:11;95902.09;;;7.29;100.00
6514;BME280;3290;47.716;9.070;2024-01-06T04:14:37;95901.84;;;7.49;100.00
6514;BME280;3290;47.716;9.070;2024-01-06T04:17:02;95907.78;;;7.56;100.00
6514;BME280;3290;47.716;9.070;2024-01-06T04:19:28;95906.34;;;7.42;100.00
6514;BME280;3290;47.716;9.070;2024-01-06T04:21:53;95913.09;;;7.31;100.00
6514;BME280;3290;47.716;9.070;2024-01-06T04:24:19;95910.78;;;7.41;100.00
6514;BME280;3290;47.716;9.070;2024-01-06T04:26:44;95916.22;;;7.22;100.00
6514;BME280;3290;47.716;9.070;2024-01-06T04:29:11;95913.78;;;7.09;100.00
6514;BME280;3290;47.716;9.070;2024-01-06T04:31:37;95924.41;;;7.08;100.00
6514;BME280;3290;47.716;9.070;2024-01-06T04:34:02;95917.88;;;7.17;100.00
6514;BME280;3290;47.716;9.070;2024-01-06T04:36:28;95928.25;;;7.23;100.00
6514;BME280;3290;47.716;9.070;2024-01-06T04:38:54;95929.44;;;7.03;100.00
6514;BME280;3290;47.716;9.070;2024-01-06T04:41:19;95930.38;;;7.26;100.00
6514;BME280;3290;47.716;9.070;2024-01-06T04:43:45;95932.00;;;7.09;100.00
6514;BME280;3290;47.716;9.070;2024-01-06T04:46:10;95930.13;;;7.16;100.00
6514;BME280;3290;47.716;9.070;2024-01-06T04:48:35;95943.13;;;7.16;100.00
6514;BME280;3290;47.716;9.070;2024-01-06T04:51:01;95933.44;;;7.05;100.00
6514;BME280;3290;47.716;9.070;2024-01-06T04:53:28;95932.94;;;6.97;100.00
6514;BME280;3290;47.716;9.070;2024-01-06T04:55:53;95934.59;;;7.09;100.00
6514;BME280;3290;47.716;9.070;2024-01-06T04:58:19;95943.25;;;7.03;100.00
6514;BME280;3290;47.716;9.070;2024-01-06T05:00:44;95942.91;;;7.35;100.00
6514;BME280;3290;47.716;9.070;2024-01-06T05:03:10;95938.91;;;7.33;100.00
6514;BME280;3290;47.716;9.070;2024-01-06T05:05:35;95936.63;;;7.25;100.00
6514;BME280;3290;47.716;9.070;2024-01-06T05:08:00;95945.75;;;7.16;100.00
6514;BME280;3290;47.716;9.070;2024-01-06T05:10:26;95946.91;;;7.20;100.00
6514;BME280;3290;47.716;9.070;2024-01-06T05:12:52;95944.28;;;7.02;100.00
6514;BME280;3290;47.716;9.070;2024-01-06T05:15:17;95945.59;;;7.29;100.00
6514;BME280;3290;47.716;9.070;2024-01-06T05:17:42;95944.72;;;7.17;100.00
6514;BME280;3290;47.716;9.070;2024-01-06T05:20:08;95948.50;;;7.39;100.00
6514;BME280;3290;47.716;9.070;2024-01-06T05:22:34;95951.25;;;7.44;100.00
6514;BME280;3290;47.716;9.070;2024-01-06T05:24:59;95947.59;;;7.45;100.00
6514;BME280;3290;47.716;9.070;2024-01-06T05:27:24;95942.97;;;7.47;100.00
6514;BME280;3290;47.716;9.070;2024-01-06T05:29:50;95948.03;;;7.42;100.00
6514;BME280;3290;47.716;9.070;2024-01-06T05:32:17;95949.06;;;7.41;100.00
6514;BME280;3290;47.716;9.070;2024-01-06T05:34:42;95953.34;;;7.35;100.00
6514;BME280;3290;47.716;9.070;2024-01-06T05:37:09;95956.59;;;7.31;100.00
6514;BME280;3290;47.716;9.070;2024-01-06T05:39:37;95955.84;;;7.24;100.00
6514;BME280;3290;47.716;9.070;2024-01-06T05:42:03;95965.78;;;7.33;100.00
6514;BME280;3290;47.716;9.070;2024-01-06T05:44:29;95966.00;;;7.14;100.00
6514;BME280;3290;47.716;9.070;2024-01-06T05:46:54;95962.00;;;7.12;100.00
6514;BME280;3290;47.716;9.070;2024-01-06T05:49:19;95960.06;;;7.07;100.00
6514;BME280;3290;47.716;9.070;2024-01-06T05:51:45;95964.56;;;7.18;100.00
6514;BME280;3290;47.716;9.070;2024-01-06T05:54:11;95958.97;;;7.32;100.00
6514;BME280;3290;47.716;9.070;2024-01-06T05:56:36;95972.09;;;7.44;100.00
6514;BME280;3290;47.716;9.070;2024-01-06T05:59:01;95970.53;;;7.01;100.00
6514;BME280;3290;47.716;9.070;2024-01-06T06:01:28;95979.28;;;6.88;100.00
6514;BME280;3290;47.716;9.070;2024-01-06T06:03:53;95978.34;;;7.18;100.00
6514;BME280;3290;47.716;9.070;2024-01-06T06:06:18;95983.06;;;7.10;100.00
6514;BME280;3290;47.716;9.070;2024-01-06T06:08:44;95989.69;;;6.64;100.00
6514;BME280;3290;47.716;9.070;2024-01-06T06:11:10;95994.72;;;6.83;100.00
6514;BME280;3290;47.716;9.070;2024-01-06T06:13:42;95994.84;;;6.71;100.00
6514;BME280;3290;47.716;9.070;2024-01-06T06:16:11;95993.03;;;6.95;100.00
6514;BME280;3290;47.716;9.070;2024-01-06T06:18:39;95993.34;;;7.05;100.00
6514;BME280;3290;47.716;9.070;2024-01-06T06:21:06;95996.84;;;6.93;100.00
6514;BME280;3290;47.716;9.070;2024-01-06T06:23:33;96005.16;;;7.01;100.00
6514;BME280;3290;47.716;9.070;2024-01-06T06:25:58;96000.66;;;7.32;100.00
6514;BME280;3290;47.716;9.070;2024-01-06T06:28:25;96002.63;;;7.37;100.00
6514;BME280;3290;47.716;9.070;2024-01-06T06:30:50;96003.75;;;7.05;100.00
6514;BME280;3290;47.716;9.070;2024-01-06T06:33:16;96002.09;;;7.11;100.00
6514;BME280;3290;47.716;9.070;2024-01-06T06:35:42;96005.19;;;7.19;100.00
6514;BME280;3290;47.716;9.070;2024-01-06T06:38:07;96007.06;;;7.12;100.00
6514;BME280;3290;47.716;9.070;2024-01-06T06:40:33;95998.25;;;7.13;100.00
6514;BME280;3290;47.716;9.070;2024-01-06T06:42:58;95989.28;;;7.09;100.00
6514;BME280;3290;47.716;9.070;2024-01-06T06:45:23;96002.00;;;7.17;100.00
6514;BME280;3290;47.716;9.070;2024-01-06T06:47:49;95997.94;;;7.03;100.00
6514;BME280;3290;47.716;9.070;2024-01-06T06:50:16;96001.78;;;7.01;100.00
6514;BME280;3290;47.716;9.070;2024-01-06T06:52:41;96010.22;;;6.96;100.00
6514;BME280;3290;47.716;9.070;2024-01-06T06:55:08;96008.91;;;6.87;100.00
6514;BME280;3290;47.716;9.070;2024-01-06T06:57:33;96011.25;;;6.95;100.00
6514;BME280;3290;47.716;9.070;2024-01-06T06:59:58;96016.03;;;6.98;100.00
6514;BME280;3290;47.716;9.070;2024-01-06T07:02:25;96018.75;;;7.27;100.00
6514;BME280;3290;47.716;9.070;2024-01-06T07:04:51;96016.63;;;7.00;100.00
6514;BME280;3290;47.716;9.070;2024-01-06T07:07:16;96028.41;;;6.78;100.00
6514;BME280;3290;47.716;9.070;2024-01-06T07:09:41;96033.75;;;6.59;100.00
6514;BME280;3290;47.716;9.070;2024-01-06T07:12:07;96035.47;;;6.72;100.00
6514;BME280;3290;47.716;9.070;2024-01-06T07:14:33;96032.03;;;6.78;100.00
6514;BME280;3290;47.716;9.070;2024-01-06T07:16:58;96029.81;;;6.81;100.00
6514;BME280;3290;47.716;9.070;2024-01-06T07:19:24;96037.28;;;6.71;100.00
6514;BME280;3290;47.716;9.070;2024-01-06T07:21:49;96026.44;;;6.98;100.00
6514;BME280;3290;47.716;9.070;2024-01-06T07:24:14;96033.34;;;6.86;100.00
6514;BME280;3290;47.716;9.070;2024-01-06T07:26:41;96029.06;;;6.98;100.00
6514;BME280;3290;47.716;9.070;2024-01-06T07:29:06;96032.16;;;7.07;100.00
6514;BME280;3290;47.716;9.070;2024-01-06T07:31:33;96035.47;;;6.96;100.00
6514;BME280;3290;47.716;9.070;2024-01-06T07:33:59;96037.53;;;6.87;100.00
6514;BME280;3290;47.716;9.070;2024-01-06T07:36:25;96043.44;;;7.01;100.00
6514;BME280;3290;47.716;9.070;2024-01-06T07:38:50;96047.56;;;7.08;100.00
6514;BME280;3290;47.716;9.070;2024-01-06T07:41:17;96057.03;;;7.03;100.00
6514;BME280;3290;47.716;9.070;2024-01-06T07:43:42;96049.47;;;7.19;100.00
6514;BME280;3290;47.716;9.070;2024-01-06T07:46:08;96059.94;;;7.37;100.00
6514;BME280;3290;47.716;9.070;2024-01-06T07:48:34;96061.22;;;7.28;100.00
6514;BME280;3290;47.716;9.070;2024-01-06T07:51:01;96063.53;;;7.36;100.00
6514;BME280;3290;47.716;9.070;2024-01-06T07:53:26;96061.88;;;6.99;100.00
6514;BME280;3290;47.716;9.070;2024-01-06T07:55:51;96068.25;;;7.03;100.00
6514;BME280;3290;47.716;9.070;2024-01-06T07:58:17;96063.69;;;7.23;100.00
6514;BME280;3290;47.716;9.070;2024-01-06T08:00:42;96067.69;;;7.19;100.00
6514;BME280;3290;47.716;9.070;2024-01-06T08:03:07;96070.59;;;7.11;100.00
6514;BME280;3290;47.716;9.070;2024-01-06T08:05:33;96071.88;;;7.44;100.00
6514;BME280;3290;47.716;9.070;2024-01-06T08:07:58;96078.53;;;6.98;100.00
6514;BME280;3290;47.716;9.070;2024-01-06T08:10:23;96073.31;;;6.98;100.00
6514;BME280;3290;47.716;9.070;2024-01-06T08:12:49;96074.31;;;6.97;100.00
6514;BME280;3290;47.716;9.070;2024-01-06T08:15:14;96078.66;;;7.03;100.00
6514;BME280;3290;47.716;9.070;2024-01-06T08:17:40;96077.88;;;7.03;100.00
6514;BME280;3290;47.716;9.070;2024-01-06T08:20:07;96080.84;;;7.06;100.00
6514;BME280;3290;47.716;9.070;2024-01-06T08:22:33;96074.94;;;7.17;100.00
6514;BME280;3290;47.716;9.070;2024-01-06T08:24:59;96077.69;;;7.22;100.00
6514;BME280;3290;47.716;9.070;2024-01-06T08:27:24;96081.88;;;7.47;100.00
6514;BME280;3290;47.716;9.070;2024-01-06T08:29:50;96087.19;;;7.34;100.00
6514;BME280;3290;47.716;9.070;2024-01-06T08:32:15;96080.78;;;7.37;100.00
6514;BME280;3290;47.716;9.070;2024-01-06T08:34:41;96089.66;;;7.29;100.00
6514;BME280;3290;47.716;9.070;2024-01-06T08:37:07;96095.22;;;7.33;100.00
6514;BME280;3290;47.716;9.070;2024-01-06T08:39:32;96082.78;;;7.35;100.00
6514;BME280;3290;47.716;9.070;2024-01-06T08:41:58;96091.84;;;7.50;100.00
6514;BME280;3290;47.716;9.070;2024-01-06T08:44:23;96087.16;;;7.41;100.00
6514;BME280;3290;47.716;9.070;2024-01-06T08:46:49;96086.28;;;7.47;100.00
6514;BME280;3290;47.716;9.070;2024-01-06T08:49:15;96098.03;;;7.31;100.00
6514;BME280;3290;47.716;9.070;2024-01-06T08:51:41;96101.56;;;7.19;100.00
6514;BME280;3290;47.716;9.070;2024-01-06T08:54:06;96098.31;;;7.48;100.00
6514;BME280;3290;47.716;9.070;2024-01-06T08:56:34;96106.22;;;7.35;100.00
6514;BME280;3290;47.716;9.070;2024-01-06T08:59:00;96103.63;;;7.35;100.00
6514;BME280;3290;47.716;9.070;2024-01-06T09:01:25;96111.50;;;7.53;100.00
6514;BME280;3290;47.716;9.070;2024-01-06T09:03:51;96113.22;;;7.41;100.00
6514;BME280;3290;47.716;9.070;2024-01-06T09:06:16;96112.72;;;7.26;100.00
6514;BME280;3290;47.716;9.070;2024-01-06T09:08:41;96107.59;;;7.61;100.00
6514;BME280;3290;47.716;9.070;2024-01-06T09:11:07;96117.44;;;7.59;100.00
6514;BME280;3290;47.716;9.070;2024-01-06T09:13:32;96118.06;;;7.55;100.00
6514;BME280;3290;47.716;9.070;2024-01-06T09:15:58;96119.31;;;7.53;100.00
6514;BME280;3290;47.716;9.070;2024-01-06T09:18:25;96119.81;;;7.61;100.00
6514;BME280;3290;47.716;9.070;2024-01-06T09:20:51;96134.88;;;7.59;100.00
6514;BME280;3290;47.716;9.070;2024-01-06T09:23:16;96129.88;;;7.57;100.00
6514;BME280;3290;47.716;9.070;2024-01-06T09:25:42;96132.34;;;7.53;100.00
6514;BME280;3290;47.716;9.070;2024-01-06T09:28:07;96126.94;;;7.30;100.00
6514;BME280;3290;47.716;9.070;2024-01-06T09:30:33;96132.94;;;7.30;100.00
6514;BME280;3290;47.716;9.070;2024-01-06T09:32:58;96134.72;;;7.54;100.00
6514;BME280;3290;47.716;9.070;2024-01-06T09:35:24;96135.91;;;7.76;100.00
6514;BME280;3290;47.716;9.070;2024-01-06T09:37:49;96128.88;;;7.76;100.00
6514;BME280;3290;47.716;9.070;2024-01-06T09:40:22;96137.28;;;7.78;100.00
6514;BME280;3290;47.716;9.070;2024-01-06T09:42:52;96135.59;;;7.66;100.00
6514;BME280;3290;47.716;9.070;2024-01-06T09:45:19;96136.34;;;7.73;100.00
6514;BME280;3290;47.716;9.070;2024-01-06T09:47:48;96138.16;;;7.72;100.00
6514;BME280;3290;47.716;9.070;2024-01-06T09:50:17;96139.91;;;7.54;100.00
6514;BME280;3290;47.716;9.070;2024-01-06T09:52:45;96136.19;;;7.68;100.00
6514;BME280;3290;47.716;9.070;2024-01-06T09:55:17;96133.38;;;7.69;100.00
6514;BME280;3290;47.716;9.070;2024-01-06T09:57:45;96137.06;;;7.38;100.00
6514;BME280;3290;47.716;9.070;2024-01-06T10:00:10;96133.19;;;7.47;100.00
6514;BME280;3290;47.716;9.070;2024-01-06T10:02:36;96132.91;;;7.55;100.00
6514;BME280;3290;47.716;9.070;2024-01-06T10:05:02;96130.28;;;7.37;100.00
6514;BME280;3290;47.716;9.070;2024-01-06T10:07:28;96132.34;;;7.53;100.00
6514;BME280;3290;47.716;9.070;2024-01-06T10:09:56;96133.09;;;7.59;100.00
6514;BME280;3290;47.716;9.070;2024-01-06T10:12:24;96138.69;;;7.39;100.00
6514;BME280;3290;47.716;9.070;2024-01-06T10:14:50;96135.38;;;7.50;100.00
6514;BME280;3290;47.716;9.070;2024-01-06T10:17:15;96128.84;;;7.41;100.00
6514;BME280;3290;47.716;9.070;2024-01-06T10:19:44;96129.03;;;7.63;100.00
6514;BME280;3290;47.716;9.070;2024-01-06T10:22:10;96127.00;;;7.65;100.00
6514;BME280;3290;47.716;9.070;2024-01-06T10:24:37;96127.41;;;7.62;100.00
6514;BME280;3290;47.716;9.070;2024-01-06T10:27:03;96121.56;;;7.49;100.00
6514;BME280;3290;47.716;9.070;2024-01-06T10:29:28;96120.69;;;7.73;100.00
6514;BME280;3290;47.716;9.070;2024-01-06T10:31:54;96116.72;;;7.53;100.00
6514;BME280;3290;47.716;9.070;2024-01-06T10:34:20;96114.19;;;7.64;100.00
6514;BME280;3290;47.716;9.070;2024-01-06T10:36:46;96125.91;;;7.55;100.00
6514;BME280;3290;47.716;9.070;2024-01-06T10:39:13;96122.56;;;7.66;100.00
6514;BME280;3290;47.716;9.070;2024-01-06T10:41:41;96125.56;;;7.45;100.00
6514;BME280;3290;47.716;9.070;2024-01-06T10:44:08;96117.50;;;7.53;100.00
6514;BME280;3290;47.716;9.070;2024-01-06T10:46:34;96130.75;;;7.52;100.00
6514;BME280;3290;47.716;9.070;2024-01-06T10:49:00;96124.56;;;7.88;100.00
6514;BME280;3290;47.716;9.070;2024-01-06T10:51:28;96124.63;;;7.82;100.00
6514;BME280;3290;47.716;9.070;2024-01-06T10:53:57;96120.06;;;7.95;100.00
6514;BME280;3290;47.716;9.070;2024-01-06T10:56:23;96125.56;;;7.87;100.00
6514;BME280;3290;47.716;9.070;2024-01-06T10:58:50;96124.81;;;7.80;100.00
6514;BME280;3290;47.716;9.070;2024-01-06T11:01:22;96120.34;;;7.87;100.00
6514;BME280;3290;47.716;9.070;2024-01-06T11:03:48;96117.16;;;7.85;100.00
6514;BME280;3290;47.716;9.070;2024-01-06T11:06:18;96115.44;;;7.97;100.00
6514;BME280;3290;47.716;9.070;2024-01-06T11:11:18;96099.38;;;8.18;100.00
6514;BME280;3290;47.716;9.070;2024-01-06T11:13:47;96100.63;;;7.73;100.00
6514;BME280;3290;47.716;9.070;2024-01-06T11:16:36;96106.72;;;8.03;100.00
6514;BME280;3290;47.716;9.070;2024-01-06T11:19:02;96106.50;;;8.04;100.00
6514;BME280;3290;47.716;9.070;2024-01-06T11:21:33;96107.63;;;8.15;100.00
6514;BME280;3290;47.716;9.070;2024-01-06T11:24:18;96103.38;;;7.96;100.00
6514;BME280;3290;47.716;9.070;2024-01-06T11:26:52;96102.53;;;7.84;100.00
6514;BME280;3290;47.716;9.070;2024-01-06T11:29:19;96102.97;;;7.99;100.00
6514;BME280;3290;47.716;9.070;2024-01-06T11:32:18;96109.47;;;7.72;100.00
6514;BME280;3290;47.716;9.070;2024-01-06T11:34:53;96101.88;;;7.89;100.00
6514;BME280;3290;47.716;9.070;2024-01-06T11:37:25;96101.25;;;8.11;100.00
6514;BME280;3290;47.716;9.070;2024-01-06T11:39:51;96097.91;;;8.22;99.06
6514;BME280;3290;47.716;9.070;2024-01-06T11:42:18;96102.19;;;8.16;98.58
6514;BME280;3290;47.716;9.070;2024-01-06T11:44:44;96100.00;;;8.13;99.35
6514;BME280;3290;47.716;9.070;2024-01-06T11:47:15;96099.34;;;8.36;98.61
6514;BME280;3290;47.716;9.070;2024-01-06T11:49:44;96095.44;;;8.27;99.20
6514;BME280;3290;47.716;9.070;2024-01-06T11:52:11;96097.75;;;7.99;99.08
6514;BME280;3290;47.716;9.070;2024-01-06T11:54:37;96091.69;;;8.05;99.03
6514;BME280;3290;47.716;9.070;2024-01-06T11:57:03;96086.47;;;8.05;98.68
6514;BME280;3290;47.716;9.070;2024-01-06T11:59:28;96072.69;;;8.16;99.21
6514;BME280;3290;47.716;9.070;2024-01-06T12:01:54;96077.16;;;8.09;99.27
6514;BME280;3290;47.716;9.070;2024-01-06T12:04:19;96078.91;;;7.97;98.57
6514;BME280;3290;47.716;9.070;2024-01-06T12:06:47;96078.69;;;7.98;98.43
6514;BME280;3290;47.716;9.070;2024-01-06T12:09:13;96071.25;;;8.20;97.57
6514;BME280;3290;47.716;9.070;2024-01-06T12:11:41;96071.03;;;7.86;98.52
6514;BME280;3290;47.716;9.070;2024-01-06T12:14:10;96069.88;;;8.17;98.36
6514;BME280;3290;47.716;9.070;2024-01-06T12:16:36;96062.97;;;8.23;97.38
6514;BME280;3290;47.716;9.070;2024-01-06T12:19:01;96062.38;;;8.03;97.50
6514;BME280;3290;47.716;9.070;2024-01-06T12:21:29;96063.47;;;8.13;97.02
6514;BME280;3290;47.716;9.070;2024-01-06T12:23:54;96070.94;;;8.28;96.88
6514;BME280;3290;47.716;9.070;2024-01-06T12:26:36;96066.91;;;8.14;96.51
6514;BME280;3290;47.716;9.070;2024-01-06T12:29:04;96066.66;;;8.15;98.31
6514;BME280;3290;47.716;9.070;2024-01-06T12:31:29;96060.50;;;8.28;97.38
6514;BME280;3290;47.716;9.070;2024-01-06T12:33:55;96056.59;;;8.19;97.40
6514;BME280;3290;47.716;9.070;2024-01-06T12:36:21;96056.00;;;8.17;96.52
6514;BME280;3290;47.716;9.070;2024-01-06T12:38:46;96053.06;;;8.13;96.24
6514;BME280;3290;47.716;9.070;2024-01-06T12:41:12;96056.38;;;8.20;96.78
6514;BME280;3290;47.716;9.070;2024-01-06T12:43:37;96059.91;;;8.08;96.50
6514;BME280;3290;47.716;9.070;2024-01-06T12:46:03;96057.66;;;8.29;98.74
6514;BME280;3290;47.716;9.070;2024-01-06T12:48:28;96064.91;;;8.09;96.91
6514;BME280;3290;47.716;9.070;2024-01-06T12:50:54;96063.97;;;8.22;96.07
6514;BME280;3290;47.716;9.070;2024-01-06T12:53:20;96063.47;;;8.13;96.54
6514;BME280;3290;47.716;9.070;2024-01-06T12:55:45;96057.75;;;8.23;96.38
6514;BME280;3290;47.716;9.070;2024-01-06T12:58:10;96055.31;;;8.10;96.36
6514;BME280;3290;47.716;9.070;2024-01-06T13:00:36;96062.03;;;7.82;98.54
6514;BME280;3290;47.716;9.070;2024-01-06T13:03:02;96060.38;;;8.05;98.75
6514;BME280;3290;47.716;9.070;2024-01-06T13:05:27;96059.81;;;8.21;98.14
6514;BME280;3290;47.716;9.070;2024-01-06T13:07:52;96060.03;;;8.01;96.65
6514;BME280;3290;47.716;9.070;2024-01-06T13:10:18;96058.13;;;8.08;96.24
6514;BME280;3290;47.716;9.070;2024-01-06T13:12:44;96058.78;;;8.22;96.11
6514;BME280;3290;47.716;9.070;2024-01-06T13:15:09;96051.09;;;8.09;95.99
6514;BME280;3290;47.716;9.070;2024-01-06T13:17:36;96056.31;;;8.09;96.90
6514;BME280;3290;47.716;9.070;2024-01-06T13:20:02;96063.56;;;8.07;97.19